Time;durP1;ratioP1;P1;durP2;ratioP2;P2;SDS_P1;SDS_P2;PMS_P1;PMS_P2;Temp;Humidity;BMP_temperature;BMP_pressure;BME280_temperature;BME280_humidity;BME280_pressure;Samples;Min_cycle;Max_cycle;Signal;HPM_P1;HPM_P2
2022/07/02 00:00:58;;;;;;;9.15;8.23;;;;;;;27.26;45.14;101581.70;1640966;86;21489;-53
2022/07/02 00:03:36;;;;;;;8.98;8.08;;;;;;;27.27;45.56;101581.19;1640702;86;21102;-51
2022/07/02 00:06:04;;;;;;;13.50;8.08;;;;;;;27.25;45.92;101581.32;1639387;86;21069;-52
2022/07/02 00:08:33;;;;;;;9.78;8.53;;;;;;;27.25;46.42;101579.98;1640669;86;21071;-51
2022/07/02 00:11:03;;;;;;;9.60;8.50;;;;;;;27.24;46.82;101583.61;1640803;86;21101;-52
2022/07/02 00:13:29;;;;;;;10.53;8.15;;;;;;;27.24;47.21;101582.27;1640820;86;21074;-51
2022/07/02 00:15:57;;;;;;;11.20;8.50;;;;;;;27.25;47.46;101583.99;1641017;87;21054;-49
2022/07/02 00:18:23;;;;;;;8.78;7.87;;;;;;;27.26;47.81;101584.84;1640801;86;21072;-53
2022/07/02 00:20:50;;;;;;;12.78;8.13;;;;;;;27.27;48.02;101580.71;1640716;86;21102;-52
2022/07/02 00:23:17;;;;;;;8.85;7.92;;;;;;;27.29;48.04;101581.44;1640728;86;21592;-53
2022/07/02 00:25:51;;;;;;;9.13;8.15;;;;;;;27.31;48.04;101586.18;1640704;86;21057;-52
2022/07/02 00:28:18;;;;;;;8.55;7.55;;;;;;;27.33;48.01;101586.91;1637493;86;21025;-51
2022/07/02 00:30:47;;;;;;;9.28;8.10;;;;;;;27.36;48.10;101587.20;1640694;86;21089;-50
2022/07/02 00:33:15;;;;;;;9.25;7.90;;;;;;;27.36;48.29;101589.39;1640673;86;21533;-51
2022/07/02 00:35:42;;;;;;;8.80;7.90;;;;;;;27.37;48.35;101587.55;1641110;87;21122;-50
2022/07/02 00:38:09;;;;;;;8.45;7.55;;;;;;;27.38;48.29;101587.45;1637671;86;21048;-49
2022/07/02 00:40:37;;;;;;;10.50;8.60;;;;;;;27.37;48.37;101581.72;1620515;88;21081;-50
2022/07/02 00:43:04;;;;;;;9.58;7.78;;;;;;;27.37;48.49;101584.39;1612585;88;21561;-52
2022/07/02 00:45:33;;;;;;;8.38;7.40;;;;;;;27.37;48.74;101582.20;1617574;88;21061;-52
2022/07/02 00:48:00;;;;;;;8.68;7.47;;;;;;;27.38;48.94;101582.58;1608704;88;21012;-51
2022/07/02 00:50:27;;;;;;;9.10;7.55;;;;;;;27.38;49.04;101584.78;1702291;83;21542;-51
2022/07/02 00:52:54;;;;;;;8.70;7.90;;;;;;;27.39;49.20;101581.59;1716089;82;20990;-51
2022/07/02 00:55:21;;;;;;;9.98;8.18;;;;;;;27.39;49.38;101586.45;1709790;82;21030;-53
2022/07/02 00:57:48;;;;;;;8.25;7.50;;;;;;;27.41;49.52;101585.50;1708791;82;21513;-51
2022/07/02 01:00:16;;;;;;;8.78;7.35;;;;;;;27.43;49.65;101588.91;1709984;82;20993;-54
2022/07/02 01:02:46;;;;;;;8.23;7.25;;;;;;;27.43;49.65;101590.24;1702545;83;21556;-50
2022/07/02 01:05:18;;;;;;;8.43;7.62;;;;;;;27.44;49.72;101591.45;1712568;82;21458;-53
2022/07/02 01:10:48;;;;;;;8.58;7.67;;;;;;;27.47;50.29;101594.38;1699499;82;20989;-50
2022/07/02 01:13:15;;;;;;;11.33;8.70;;;;;;;27.49;50.60;101596.44;1712520;82;21021;-50
2022/07/02 01:15:42;;;;;;;8.70;7.80;;;;;;;27.49;50.91;101597.30;1712283;82;21552;-52
2022/07/02 01:18:10;;;;;;;9.03;7.60;;;;;;;27.51;51.02;101597.17;1710086;82;21044;-50
2022/07/02 01:20:37;;;;;;;8.75;7.72;;;;;;;27.51;51.10;101603.85;1711081;82;21005;-51
2022/07/02 01:23:04;;;;;;;8.88;7.92;;;;;;;27.52;51.65;101600.19;1710202;83;21005;-53
2022/07/02 01:25:31;;;;;;;10.20;8.08;;;;;;;27.51;52.63;101607.38;1713102;82;21022;-52
2022/07/02 01:27:57;;;;;;;8.38;7.33;;;;;;;27.50;53.29;101605.66;1712203;82;21498;-52
2022/07/02 01:30:24;;;;;;;11.03;7.42;;;;;;;27.50;53.77;101596.78;1715663;82;21022;-52
2022/07/02 01:32:51;;;;;;;8.30;7.00;;;;;;;27.51;53.60;101598.50;1709396;82;21009;-54
2022/07/02 01:35:18;;;;;;;7.53;6.78;;;;;;;27.53;53.23;101608.59;1708853;82;20981;-51
2022/07/02 01:37:45;;;;;;;7.67;6.83;;;;;;;27.56;52.93;101603.84;1709613;82;21055;-51
2022/07/02 01:40:12;;;;;;;7.05;6.45;;;;;;;27.59;53.05;101608.10;1725078;82;21487;-51
2022/07/02 01:42:39;;;;;;;7.25;6.55;;;;;;;27.61;53.23;101607.49;1734470;81;21039;-50
2022/07/02 01:45:07;;;;;;;7.60;6.90;;;;;;;27.63;53.39;101605.55;1733133;81;21019;-49
2022/07/02 01:47:34;;;;;;;8.75;6.67;;;;;;;27.64;53.59;101615.25;1728302;81;21483;-52
2022/07/02 01:50:01;;;;;;;7.65;6.58;;;;;;;27.67;53.84;101620.37;1735776;81;21050;-55
2022/07/02 01:52:28;;;;;;;8.28;6.62;;;;;;;27.68;53.17;101616.71;1701102;84;21545;-53
2022/07/02 01:54:54;;;;;;;7.17;6.50;;;;;;;27.70;52.83;101621.48;1735541;81;21031;-50
2022/07/02 01:57:22;;;;;;;8.83;6.50;;;;;;;27.72;52.59;101619.53;1734140;81;21039;-50
2022/07/02 01:59:48;;;;;;;8.73;6.20;;;;;;;27.73;51.61;101626.57;1679177;85;21034;-54
2022/07/02 02:02:16;;;;;;;7.12;6.42;;;;;;;27.72;50.71;101630.23;1736798;82;21027;-53
2022/07/02 02:04:42;;;;;;;8.95;6.22;;;;;;;27.74;50.34;101633.63;1701016;84;21054;-51
2022/07/02 02:07:09;;;;;;;9.75;6.15;;;;;;;27.74;49.83;101633.63;1734941;81;21019;-51
2022/07/02 02:09:37;;;;;;;8.55;6.33;;;;;;;27.72;49.05;101639.08;1733619;81;21018;-50
2022/07/02 02:12:05;;;;;;;9.48;6.30;;;;;;;27.70;48.63;101634.85;1731139;81;21018;-51
2022/07/02 02:14:32;;;;;;;8.88;6.87;;;;;;;27.70;48.38;101633.52;1733214;81;21038;-51
2022/07/02 02:16:59;;;;;;;10.35;6.78;;;;;;;27.69;48.43;101635.81;1735115;81;21530;-51
2022/07/02 02:19:26;;;;;;;7.40;6.58;;;;;;;27.65;48.33;101642.38;1701166;84;21038;-52
2022/07/02 02:21:52;;;;;;;7.92;6.78;;;;;;;27.63;48.32;101641.64;1700779;84;21034;-51
2022/07/02 02:24:19;;;;;;;7.92;6.10;;;;;;;27.60;48.26;101641.88;1698756;84;21467;-50
2022/07/02 02:26:47;;;;;;;8.05;5.78;;;;;;;27.60;48.25;101639.20;1699803;84;20999;-49
2022/07/02 02:29:14;;;;;;;7.45;6.35;;;;;;;27.57;48.43;101637.64;1700085;84;21066;-51
2022/07/02 02:31:41;;;;;;;7.42;6.03;;;;;;;27.56;48.54;101641.27;1736367;81;20999;-55
2022/07/02 02:34:07;;;;;;;8.83;6.08;;;;;;;27.56;48.60;101643.95;1700729;84;21011;-51
2022/07/02 02:36:34;;;;;;;7.45;6.05;;;;;;;27.57;48.47;101644.80;1698065;84;20982;-52
2022/07/02 02:39:01;;;;;;;9.10;6.83;;;;;;;27.57;48.32;101644.80;1697964;83;21073;-51
2022/07/02 02:41:28;;;;;;;8.83;6.50;;;;;;;27.56;48.30;101652.45;1693765;84;21063;-51
2022/07/02 02:43:55;;;;;;;7.85;6.15;;;;;;;27.57;48.22;101651.48;1696839;84;21573;-51
2022/07/02 02:46:22;;;;;;;8.13;5.85;;;;;;;27.57;48.12;101651.48;1729105;81;21102;-54
2022/07/02 02:48:49;;;;;;;6.15;5.58;;;;;;;27.58;48.11;101657.19;1733085;81;21022;-50
2022/07/02 02:51:16;;;;;;;7.90;5.87;;;;;;;27.58;48.12;101657.19;1733473;81;21003;-49
2022/07/02 02:53:43;;;;;;;7.60;5.80;;;;;;;27.57;48.15;101663.52;1736000;81;21043;-51
2022/07/02 02:56:11;;;;;;;6.30;5.40;;;;;;;27.57;48.25;101668.87;1736448;81;21476;-50
2022/07/02 02:58:39;;;;;;;8.05;5.85;;;;;;;27.56;48.58;101667.15;1735723;81;21534;-49
2022/07/02 03:01:06;;;;;;;5.78;5.20;;;;;;;27.54;48.40;101670.42;1733448;81;21015;-52
2022/07/02 03:03:33;;;;;;;6.60;5.47;;;;;;;27.53;48.21;101664.73;1735153;81;21011;-52
2022/07/02 03:06:00;;;;;;;5.95;5.35;;;;;;;27.53;48.49;101672.75;1701746;84;21027;-54
2022/07/02 03:08:27;;;;;;;5.72;5.12;;;;;;;27.55;48.63;101670.81;1701013;84;21066;-52
2022/07/02 03:10:54;;;;;;;8.35;5.90;;;;;;;27.57;48.53;101672.88;1720062;81;21555;-51
2022/07/02 03:13:21;;;;;;;6.33;5.60;;;;;;;27.60;48.58;101666.80;1700193;84;20994;-50
2022/07/02 03:15:48;;;;;;;7.65;5.90;;;;;;;27.61;48.61;101662.30;1727679;81;20991;-50
2022/07/02 03:18:15;;;;;;;5.33;4.70;;;;;;;27.64;48.63;101664.72;1728186;81;21022;-52
2022/07/02 03:20:42;;;;;;;8.35;4.95;;;;;;;27.67;48.56;101666.69;1735198;81;21066;-52
2022/07/02 03:23:10;;;;;;;5.35;4.85;;;;;;;27.69;48.69;101666.08;1732154;82;20947;-50
2022/07/02 03:25:37;;;;;;;5.72;5.22;;;;;;;27.70;48.60;101661.59;1738047;81;21023;-51
2022/07/02 03:28:06;;;;;;;5.33;4.83;;;;;;;27.71;48.52;101654.78;1735977;81;21011;-50
2022/07/02 03:30:34;;;;;;;5.92;5.20;;;;;;;27.73;48.27;101658.66;1733978;81;21042;-51
2022/07/02 03:33:01;;;;;;;6.15;5.40;;;;;;;27.76;48.26;101659.77;1733559;81;21019;-50
2022/07/02 03:35:28;;;;;;;5.40;4.85;;;;;;;27.78;48.30;101660.50;1728376;81;21511;-51
2022/07/02 03:37:54;;;;;;;7.62;4.80;;;;;;;27.80;48.01;101658.55;1736570;81;21043;-51
2022/07/02 03:40:21;;;;;;;5.70;5.08;;;;;;;27.84;47.44;101664.84;1701836;83;21049;-49
2022/07/02 03:42:48;;;;;;;5.28;4.78;;;;;;;27.89;46.99;101669.84;1743780;81;21567;-52
2022/07/02 03:45:15;;;;;;;5.30;4.80;;;;;;;27.97;46.45;101667.43;1730557;81;21026;-51
2022/07/02 03:47:42;;;;;;;5.42;4.87;;;;;;;28.15;46.15;101668.66;1741343;81;21066;-53
2022/07/02 03:50:09;;;;;;;5.17;4.78;;;;;;;28.47;45.50;101666.88;1742964;81;21495;-52
2022/07/02 03:52:38;;;;;;;6.50;4.72;;;;;;;28.93;44.75;101666.62;1704733;83;21022;-54
2022/07/02 03:55:06;;;;;;;7.35;5.12;;;;;;;29.49;43.79;101669.85;1709642;83;20999;-52
2022/07/02 03:57:34;;;;;;;5.33;4.50;;;;;;;30.14;42.49;101662.24;1744517;81;21479;-52
2022/07/02 04:00:01;;;;;;;6.03;4.40;;;;;;;30.80;40.90;101660.66;1742044;81;21018;-47
2022/07/02 04:02:28;;;;;;;6.15;4.78;;;;;;;31.44;39.20;101648.82;1741169;81;21021;-49
2022/07/02 04:04:55;;;;;;;7.97;4.55;;;;;;;31.89;38.21;101651.12;1740819;81;20972;-48
2022/07/02 04:07:22;;;;;;;7.42;4.87;;;;;;;32.17;37.60;101651.97;1741418;80;21058;-47
2022/07/02 04:09:49;;;;;;;5.55;4.28;;;;;;;32.24;37.19;101657.61;1741270;81;20995;-49
2022/07/02 04:12:15;;;;;;;6.12;4.87;;;;;;;32.17;37.33;101659.23;1751231;81;21514;-51
2022/07/02 04:14:42;;;;;;;7.05;5.20;;;;;;;31.97;37.55;101671.44;1744459;81;21003;-51
2022/07/02 04:17:09;;;;;;;7.80;5.50;;;;;;;31.74;38.50;101674.13;1707034;83;21041;-50
2022/07/02 04:19:36;;;;;;;6.03;4.90;;;;;;;31.55;38.75;101682.25;1706753;83;20998;-51
2022/07/02 04:22:03;;;;;;;7.72;5.12;;;;;;;31.33;39.37;101679.88;1743253;82;20983;-51
2022/07/02 04:24:30;;;;;;;6.62;5.15;;;;;;;31.13;40.07;101680.91;1708952;83;20979;-57
2022/07/02 04:26:57;;;;;;;5.03;4.53;;;;;;;30.95;40.65;101689.34;1744529;81;21054;-54
2022/07/02 04:29:23;;;;;;;5.55;4.95;;;;;;;30.75;41.44;101686.27;1742290;81;21015;-52
2022/07/02 04:31:50;;;;;;;5.30;4.80;;;;;;;30.54;42.02;101696.62;1741339;81;21040;-50
2022/07/02 04:34:17;;;;;;;6.72;4.90;;;;;;;30.36;42.17;101688.89;1695823;83;21514;-53
2022/07/02 04:36:44;;;;;;;5.03;4.53;;;;;;;30.23;42.39;101696.82;1743005;81;21039;-51
2022/07/02 04:39:10;;;;;;;4.70;4.28;;;;;;;30.11;41.98;101705.45;1740826;81;20987;-50
2022/07/02 04:41:37;;;;;;;4.95;4.47;;;;;;;30.01;40.97;101704.57;1727097;81;21475;-51
2022/07/02 04:44:04;;;;;;;4.70;4.30;;;;;;;29.93;40.76;101709.77;1736634;81;21058;-55
2022/07/02 04:46:32;;;;;;;4.47;4.03;;;;;;;29.85;40.83;101708.73;1701077;84;21077;-53
2022/07/02 04:48:59;;;;;;;5.53;4.05;;;;;;;29.79;40.74;101714.16;1733537;79;21043;-50
2022/07/02 04:51:26;;;;;;;6.55;4.42;;;;;;;29.74;41.01;101725.77;1735230;81;21094;-54
2022/07/02 04:53:53;;;;;;;4.15;3.77;;;;;;;29.69;41.22;101722.61;1735712;82;20975;-51
2022/07/02 04:56:19;;;;;;;4.15;3.72;;;;;;;29.66;41.23;101723.72;1736799;81;20980;-55
2022/07/02 04:58:46;;;;;;;4.45;4.05;;;;;;;29.66;41.25;101714.81;1735627;81;21034;-50
2022/07/02 05:01:13;;;;;;;4.78;4.37;;;;;;;29.65;41.14;101723.86;1734040;81;21496;-52
2022/07/02 05:03:40;;;;;;;6.00;4.37;;;;;;;29.64;41.22;101726.17;1733542;81;21003;-50
2022/07/02 05:06:06;;;;;;;4.17;3.75;;;;;;;29.63;41.15;101725.83;1733765;81;21507;-51
2022/07/02 05:08:33;;;;;;;3.87;3.30;;;;;;;29.66;41.43;101732.25;1732981;81;20999;-52
2022/07/02 05:11:00;;;;;;;5.60;3.20;;;;;;;29.72;42.07;101736.64;1732681;81;21039;-50
2022/07/02 05:13:27;;;;;;;4.15;3.33;;;;;;;29.85;42.48;101733.74;1734971;81;21031;-53
2022/07/02 05:15:53;;;;;;;3.70;3.02;;;;;;;30.02;42.66;101733.12;1736137;82;20994;-51
2022/07/02 05:18:23;;;;;;;4.30;2.80;;;;;;;30.23;42.44;101738.44;1701080;84;21065;-50
2022/07/02 05:20:50;;;;;;;3.00;2.80;;;;;;;30.41;42.43;101731.45;1735055;81;21031;-51
2022/07/02 05:23:17;;;;;;;3.70;2.95;;;;;;;30.53;42.65;101739.26;1734034;81;21023;-50
2022/07/02 05:25:44;;;;;;;3.50;2.67;;;;;;;30.57;43.03;101742.51;1733263;81;21066;-57
2022/07/02 05:28:11;;;;;;;4.80;2.83;;;;;;;30.56;43.57;101741.31;1733567;81;21516;-50
2022/07/02 05:30:38;;;;;;;2.90;2.60;;;;;;;30.54;44.14;101740.94;1731019;81;21015;-52
2022/07/02 05:33:05;;;;;;;3.40;2.65;;;;;;;30.60;44.32;101736.02;1700662;84;21050;-51
2022/07/02 05:35:32;;;;;;;4.12;2.65;;;;;;;30.65;44.63;101731.92;1698333;84;21097;-50
2022/07/02 05:37:58;;;;;;;5.33;2.70;;;;;;;30.67;44.87;101733.97;1738946;81;21065;-51
2022/07/02 05:40:26;;;;;;;3.27;2.80;;;;;;;30.69;44.86;101731.14;1743048;81;21001;-50
2022/07/02 05:42:52;;;;;;;2.58;2.37;;;;;;;30.68;45.04;101734.34;1749642;80;21025;-52
2022/07/02 05:45:19;;;;;;;3.00;2.70;;;;;;;30.69;45.44;101740.55;1747150;80;21072;-53
2022/07/02 05:47:45;;;;;;;3.37;2.75;;;;;;;30.71;45.42;101733.22;1737454;80;21042;-50
2022/07/02 05:50:12;;;;;;;3.27;2.62;;;;;;;30.74;45.28;101743.67;1747301;80;21061;-52
2022/07/02 05:52:39;;;;;;;4.10;3.42;;;;;;;30.77;45.03;101743.41;1748632;81;21069;-52
2022/07/02 05:55:07;;;;;;;4.95;2.92;;;;;;;30.81;45.13;101747.52;1749961;81;21061;-49
2022/07/02 05:57:35;;;;;;;2.98;2.77;;;;;;;30.87;45.14;101741.61;1713983;83;21037;-48
2022/07/02 06:00:03;;;;;;;3.67;2.98;;;;;;;30.96;45.49;101752.36;1712280;83;21025;-50
2022/07/02 06:02:31;;;;;;;3.12;2.80;;;;;;;31.04;45.00;101751.64;1711508;83;21025;-50
2022/07/02 06:04:58;;;;;;;2.87;2.67;;;;;;;31.09;44.89;101752.08;1710858;83;21013;-52
2022/07/02 06:07:40;;;;;;;4.28;2.90;;;;;;;31.15;44.78;101759.58;1711230;83;21097;-51
2022/07/02 06:10:09;;;;;;;6.65;3.00;;;;;;;31.24;44.65;101764.12;1710988;83;21046;-53
2022/07/02 06:12:36;;;;;;;6.05;3.22;;;;;;;31.32;44.68;101758.87;1711142;83;21394;-50
2022/07/02 06:15:05;;;;;;;6.25;2.98;;;;;;;31.41;44.46;101768.80;1710871;83;21050;-52
2022/07/02 06:17:32;;;;;;;4.28;2.80;;;;;;;31.48;44.55;101765.89;1719964;83;21044;-55
2022/07/02 06:19:59;;;;;;;3.77;3.37;;;;;;;31.53;44.63;101764.12;1713862;83;21487;-52
2022/07/02 06:22:26;;;;;;;3.27;2.75;;;;;;;31.61;44.45;101767.80;1713026;83;21037;-52
2022/07/02 06:24:55;;;;;;;6.00;2.98;;;;;;;31.78;44.30;101767.03;1711448;83;21077;-52
2022/07/02 06:27:22;;;;;;;3.60;3.00;;;;;;;32.05;43.74;101775.20;1716726;82;21009;-51
2022/07/02 06:29:49;;;;;;;3.33;2.83;;;;;;;32.35;43.06;101769.20;1714781;83;21045;-50
2022/07/02 06:32:16;;;;;;;3.77;2.67;;;;;;;32.64;42.52;101769.43;1713977;83;20986;-48
2022/07/02 06:34:44;;;;;;;4.85;2.87;;;;;;;32.87;41.99;101776.06;1713049;83;21014;-50
2022/07/02 06:37:11;;;;;;;6.10;3.35;;;;;;;33.03;41.75;101786.22;1710763;83;21058;-49
2022/07/02 06:39:38;;;;;;;5.65;3.58;;;;;;;33.10;41.64;101781.88;1711101;83;21077;-50
2022/07/02 06:44:53;;;;;;;7.00;3.95;;;;;;;33.06;41.49;101776.95;1633871;87;21080;-52
2022/07/02 06:47:23;;;;;;;4.93;3.53;;;;;;;32.93;41.68;101782.72;1678312;85;21019;-55
2022/07/02 06:49:50;;;;;;;5.70;4.25;;;;;;;32.81;42.18;101787.45;1672738;85;21054;-47
2022/07/02 06:52:17;;;;;;;5.78;4.55;;;;;;;32.71;42.50;101788.52;1678023;85;21051;-49
2022/07/02 06:54:44;;;;;;;8.08;4.92;;;;;;;32.60;42.62;101788.74;1676884;85;21528;-50
2022/07/02 06:57:11;;;;;;;7.45;5.60;;;;;;;32.51;42.93;101786.94;1677736;85;21121;-48
2022/07/02 06:59:38;;;;;;;10.03;5.85;;;;;;;32.45;42.92;101784.81;1677809;84;21532;-50
2022/07/02 07:02:05;;;;;;;7.25;5.75;;;;;;;32.42;43.07;101786.47;1678086;85;21028;-49
2022/07/02 07:04:34;;;;;;;10.20;6.90;;;;;;;32.40;43.02;101787.09;1677716;85;21011;-51
2022/07/02 07:07:04;;;;;;;11.73;8.45;;;;;;;32.38;42.86;101785.05;1678001;85;21133;-48
2022/07/02 07:09:30;;;;;;;13.55;8.90;;;;;;;32.38;42.70;101794.48;1677823;85;21674;-47
2022/07/02 07:11:57;;;;;;;12.45;9.38;;;;;;;32.36;42.75;101791.08;1677744;85;21034;-48
2022/07/02 07:14:24;;;;;;;12.18;8.73;;;;;;;32.32;42.62;101787.84;1678071;85;21055;-50
2022/07/02 07:16:51;;;;;;;12.13;9.23;;;;;;;32.28;42.71;101796.37;1677686;85;21066;-49
2022/07/02 07:19:18;;;;;;;15.10;10.65;;;;;;;32.25;43.03;101786.77;1678047;85;21026;-51
2022/07/02 07:21:44;;;;;;;13.65;9.98;;;;;;;32.25;43.21;101793.98;1677687;85;21593;-48
2022/07/02 07:24:11;;;;;;;12.63;9.20;;;;;;;32.24;43.07;101793.63;1678107;85;21051;-51
2022/07/02 07:26:38;;;;;;;14.80;9.90;;;;;;;32.25;43.05;101800.23;1677955;84;21038;-49
2022/07/02 07:29:08;;;;;;;16.50;10.80;;;;;;;32.28;43.11;101799.06;1677837;85;21527;-49
2022/07/02 07:31:36;;;;;;;;;;;;;;;32.34;43.29;101798.46;1680216;85;21008;-47
2022/07/02 07:34:03;;;;;;;12.78;9.70;;;;;;;32.51;43.15;101805.80;1677951;85;20400;-49
2022/07/02 07:36:31;;;;;;;13.62;9.95;;;;;;;32.67;42.87;101805.98;1702801;81;21066;-47
2022/07/02 07:38:58;;;;;;;14.58;9.63;;;;;;;32.81;42.51;101806.33;1707507;83;21072;-49
2022/07/02 07:41:25;;;;;;;16.23;9.45;;;;;;;32.89;42.32;101808.28;1710315;83;21030;-51
2022/07/02 07:43:52;;;;;;;12.40;8.53;;;;;;;32.88;42.25;101810.13;1706213;84;21521;-49
2022/07/02 07:46:20;;;;;;;10.88;8.30;;;;;;;32.87;42.29;101808.94;1706534;84;21042;-48
2022/07/02 07:48:46;;;;;;;11.22;7.65;;;;;;;32.85;42.59;101811.77;1691443;84;21010;-48
2022/07/02 07:51:14;;;;;;;8.35;5.70;;;;;;;32.78;42.66;101813.88;1700825;84;20986;-50
2022/07/02 07:53:43;;;;;;;4.22;3.52;;;;;;;32.69;42.66;101814.77;1736103;81;21061;-48
2022/07/02 07:56:17;;;;;;;5.03;3.77;;;;;;;32.61;42.74;101820.06;1689146;84;21050;-49
2022/07/02 07:58:45;;;;;;;3.92;3.47;;;;;;;32.56;43.06;101827.77;1742235;80;21066;-48
2022/07/02 08:01:13;;;;;;;2.98;2.62;;;;;;;32.48;43.11;101830.36;1753248;80;21026;-50
2022/07/02 08:03:40;;;;;;;5.28;2.87;;;;;;;32.44;43.30;101834.32;1742046;80;21531;-49
2022/07/02 08:06:07;;;;;;;3.50;2.90;;;;;;;32.38;43.50;101838.92;1748026;80;21067;-53
2022/07/02 08:08:36;;;;;;;4.08;3.00;;;;;;;32.30;43.54;101831.59;1698853;84;21015;-48
2022/07/02 08:11:03;;;;;;;4.20;2.95;;;;;;;32.26;43.71;101846.35;1703629;84;21023;-50
2022/07/02 08:13:31;;;;;;;3.92;3.17;;;;;;;32.23;43.56;101851.20;1703665;84;21038;-48
2022/07/02 08:15:59;;;;;;;6.60;2.75;;;;;;;32.20;43.88;101854.16;1738795;80;21023;-50
2022/07/02 08:18:27;;;;;;;4.40;3.10;;;;;;;32.18;43.93;101854.81;1736149;80;21020;-48
2022/07/02 08:20:54;;;;;;;6.65;3.08;;;;;;;32.15;43.67;101856.47;1745165;80;21003;-48
2022/07/02 08:23:21;;;;;;;5.60;3.65;;;;;;;32.12;43.71;101862.12;1735752;82;21507;-52
2022/07/02 08:25:48;;;;;;;5.03;3.25;;;;;;;32.11;43.72;101857.75;1727496;80;21006;-50
2022/07/02 08:28:17;;;;;;;4.15;2.95;;;;;;;32.06;43.86;101864.42;1739255;81;21024;-52
2022/07/02 08:30:44;;;;;;;4.40;3.05;;;;;;;32.05;43.88;101873.48;1754084;80;21025;-50
2022/07/02 08:33:12;;;;;;;3.50;2.72;;;;;;;32.02;43.87;101868.41;1740288;81;21564;-48
2022/07/02 08:35:40;;;;;;;6.25;3.12;;;;;;;32.00;44.09;101875.78;1724040;81;21597;-54
2022/07/02 08:38:07;;;;;;;7.75;3.00;;;;;;;31.98;44.15;101876.39;1747535;80;21550;-52
2022/07/02 08:40:34;;;;;;;4.83;3.62;;;;;;;32.00;43.86;101876.27;1737918;81;21049;-51
2022/07/02 08:43:01;;;;;;;4.42;3.15;;;;;;;32.00;43.91;101877.13;1737614;80;21499;-50
2022/07/02 08:45:31;;;;;;;3.52;2.98;;;;;;;32.03;43.84;101886.73;1747126;80;21624;-52
2022/07/02 08:47:59;;;;;;;3.17;2.75;;;;;;;32.04;41.33;101881.23;1749701;80;21085;-50
2022/07/02 08:50:26;;;;;;;6.37;3.08;;;;;;;32.05;39.53;101896.86;1727195;80;21111;-51
2022/07/02 08:52:53;;;;;;;3.12;2.75;;;;;;;32.04;39.29;101884.41;1736003;81;21534;-51
2022/07/02 08:55:21;;;;;;;6.53;3.22;;;;;;;32.06;38.72;101895.39;1737410;81;21042;-54
2022/07/02 08:57:48;;;;;;;3.98;3.30;;;;;;;32.06;38.86;101898.09;1703721;84;21029;-51
2022/07/02 09:00:16;;;;;;;3.77;2.90;;;;;;;32.07;38.72;101899.77;1728302;80;21062;-50
2022/07/02 09:02:43;;;;;;;3.75;2.98;;;;;;;32.06;39.01;101897.23;1736575;80;20968;-57
2022/07/02 09:05:12;;;;;;;4.10;2.67;;;;;;;32.06;39.00;101894.05;1740888;80;21027;-50
2022/07/02 09:07:40;;;;;;;4.35;3.35;;;;;;;32.07;38.31;101899.77;1733457;81;21026;-52
2022/07/02 09:10:09;;;;;;;5.53;3.75;;;;;;;32.05;38.12;101896.37;1737304;80;21062;-49
2022/07/02 09:12:36;;;;;;;4.35;2.85;;;;;;;32.04;38.35;101909.50;1735111;80;21027;-48
2022/07/02 09:15:04;;;;;;;5.60;3.40;;;;;;;32.02;38.65;101899.37;1730754;81;21027;-51
2022/07/02 09:17:31;;;;;;;4.58;3.40;;;;;;;32.01;38.42;101901.69;1730601;80;21523;-51
2022/07/02 09:19:59;;;;;;;4.15;3.37;;;;;;;32.01;38.87;101899.48;1738905;80;21004;-52
2022/07/02 09:22:39;;;;;;;4.65;3.10;;;;;;;31.99;38.79;101909.06;1742802;81;21054;-53
2022/07/02 09:25:14;;;;;;;5.72;3.27;;;;;;;31.99;38.97;101910.41;1693325;84;21071;-52
2022/07/02 09:27:41;;;;;;;5.95;3.02;;;;;;;31.99;38.76;101913.10;1697655;84;21031;-50
2022/07/02 09:30:09;;;;;;;4.15;3.33;;;;;;;32.02;38.88;101907.45;1689395;84;21022;-53
2022/07/02 09:32:40;;;;;;;3.67;3.10;;;;;;;32.02;38.75;101912.83;1694838;84;21049;-51
2022/07/02 09:35:09;;;;;;;4.78;2.80;;;;;;;32.01;38.44;101916.50;1669824;85;21082;-56
2022/07/02 09:37:36;;;;;;;5.85;3.22;;;;;;;32.01;38.28;101922.38;1669542;85;21020;-52
2022/07/02 09:40:04;;;;;;;3.95;3.30;;;;;;;31.99;37.92;101915.80;1666745;85;21055;-51
2022/07/02 09:42:34;;;;;;;3.40;3.10;;;;;;;31.99;38.24;101913.10;1666967;85;21523;-51
2022/07/02 09:45:04;;;;;;;5.90;3.30;;;;;;;32.00;38.80;101920.20;1661464;85;21105;-53
2022/07/02 09:47:44;;;;;;;4.55;3.05;;;;;;;32.01;38.88;101916.50;1638546;87;20998;-49
2022/07/02 09:50:11;;;;;;;4.00;3.60;;;;;;;32.04;38.73;101920.27;1613668;88;20999;-50
2022/07/02 09:52:54;;;;;;;6.17;3.50;;;;;;;32.04;38.66;101918.92;1615920;88;21157;-52
2022/07/02 09:55:28;;;;;;;5.05;2.90;;;;;;;32.05;38.88;101925.98;1602355;88;21085;-53
2022/07/02 09:57:59;;;;;;;4.62;3.22;;;;;;;32.03;38.48;101919.04;1619339;87;21050;-50
2022/07/02 10:00:28;;;;;;;4.37;3.42;;;;;;;31.99;38.44;101922.52;1606309;89;21063;-52
2022/07/02 10:02:57;;;;;;;3.30;2.50;;;;;;;31.96;38.75;101917.93;1607193;89;21111;-54
2022/07/02 10:05:31;;;;;;;5.40;3.35;;;;;;;31.97;38.39;101917.78;1604474;89;21052;-50
2022/07/02 10:08:00;;;;;;;5.12;3.20;;;;;;;31.98;38.32;101919.98;1529826;93;21140;-51
2022/07/02 10:10:39;;;;;;;4.42;3.47;;;;;;;32.00;38.85;101920.69;1527609;93;21118;-50
2022/07/02 10:13:09;;;;;;;4.47;3.05;;;;;;;31.99;38.35;101923.88;1491743;95;21642;-52
2022/07/02 10:15:39;;;;;;;6.28;3.33;;;;;;;32.00;38.42;101918.86;1498366;95;21408;-49
2022/07/02 10:18:06;;;;;;;3.27;2.97;;;;;;;32.02;38.38;101924.95;1489656;95;21142;-52
2022/07/02 10:20:34;;;;;;;4.12;2.90;;;;;;;31.98;38.36;101926.20;1477703;95;21131;-53
2022/07/02 10:23:03;;;;;;;4.62;3.10;;;;;;;31.95;38.30;101926.98;1442574;98;21074;-50
2022/07/02 10:25:32;;;;;;;4.75;3.12;;;;;;;31.92;38.53;101928.08;1461774;98;21147;-50
2022/07/02 10:27:59;;;;;;;6.12;2.98;;;;;;;31.95;38.60;101927.84;1463444;97;21131;-49
2022/07/02 10:30:34;;;;;;;9.13;3.30;;;;;;;31.96;38.51;101934.91;1463398;97;21156;-51
2022/07/02 10:33:46;;;;;;;5.45;3.25;;;;;;;32.00;38.44;101935.01;1509825;93;21045;-51
2022/07/02 10:36:14;;;;;;;5.70;2.72;;;;;;;31.86;39.09;101932.69;1515957;93;21112;-52
2022/07/02 10:38:41;;;;;;;6.22;2.80;;;;;;;31.87;39.47;101938.45;1514110;93;21081;-51
2022/07/02 10:41:09;;;;;;;7.20;3.27;;;;;;;32.08;38.71;101933.80;1520418;93;21133;-52
2022/07/02 10:43:39;;;;;;;4.05;2.92;;;;;;;32.25;38.20;101935.39;1528344;92;21061;-52
2022/07/02 10:46:11;;;;;;;5.65;2.95;;;;;;;32.33;38.24;101934.17;1543875;91;21092;-50
2022/07/02 10:48:51;;;;;;;3.12;2.83;;;;;;;32.35;37.95;101931.69;1557592;92;21571;-52
2022/07/02 10:51:29;;;;;;;4.28;3.42;;;;;;;32.34;38.18;101934.50;1558317;92;21563;-54
2022/07/02 10:54:02;;;;;;;3.80;3.20;;;;;;;32.37;37.93;101931.53;1558287;92;21129;-50
2022/07/02 10:56:30;;;;;;;3.47;2.77;;;;;;;32.35;38.20;101930.34;1549979;92;21137;-51
2022/07/02 10:58:57;;;;;;;4.95;3.33;;;;;;;32.34;38.51;101931.81;1528312;92;21674;-55
2022/07/02 11:01:24;;;;;;;4.78;2.90;;;;;;;32.30;38.66;101930.41;1560541;92;21053;-52
2022/07/02 11:03:59;;;;;;;6.25;3.17;;;;;;;32.26;38.76;101928.99;1563653;90;21052;-51
2022/07/02 11:06:29;;;;;;;3.25;2.92;;;;;;;32.22;38.78;101928.94;1590620;90;21122;-51
2022/07/02 11:09:04;;;;;;;3.75;2.95;;;;;;;32.20;38.77;101925.53;1566876;91;21031;-50
2022/07/02 11:11:39;;;;;;;3.08;2.83;;;;;;;32.15;38.96;101927.83;1574137;89;21067;-53
2022/07/02 11:14:13;;;;;;;2.72;2.47;;;;;;;32.14;39.33;101920.73;1598325;89;21085;-51
2022/07/02 11:16:52;;;;;;;4.87;3.12;;;;;;;32.18;39.66;101924.83;1500284;95;21656;-50
2022/07/02 11:19:24;;;;;;;3.50;2.58;;;;;;;32.22;39.25;101931.63;1527288;92;21153;-51
2022/07/02 11:21:55;;;;;;;4.47;2.87;;;;;;;32.24;39.01;101936.38;1513150;93;21081;-52
2022/07/02 11:24:23;;;;;;;;;;;;;;;32.25;39.25;101936.73;1486841;95;21061;-49
2022/07/02 11:26:50;;;;;;;6.50;3.10;;;;;;;32.27;39.73;101926.67;1483588;95;20208;-52
2022/07/02 11:29:17;;;;;;;5.70;3.02;;;;;;;32.29;39.50;101928.72;1480141;95;21549;-51
2022/07/02 11:31:49;;;;;;;4.53;2.72;;;;;;;32.30;39.40;101926.36;1484245;95;21159;-50
2022/07/02 11:34:20;;;;;;;3.30;2.92;;;;;;;32.30;39.34;101923.67;1480018;95;21131;-50